Detroit, Michigan
Current Conditions -  °F | °C
As of 8:00 PM on Monday 24 Nov 2014 (Local Time) from CYQG Reporting Station
Overcast Overcast  
Wind Chill: 25°   Ceiling: 2400
Heat Index: 37°   Visibility: 15mi
Dew Point: 30°   Wind: 29mph
Humidity: 75%   Direction: 230°SW
Pressure: 29.59"   Gusts: 37mph
Location:  42.33°N, 83.05°W
Report Text: CYQG 250100Z 23025G32KT 15SM OVC024 03/M01 A2959 RMK SC8 SLP023
Loading
Personal Weather Stations






























Interactive Weather Map New forecast layout! Learn more

10-Day Weather Forecast

Advertisements
Track Severe Weather on mobile